sensor_id;sensor_type;location;lat;lon;timestamp;pressure;altitude;pressure_sealevel;temperature;humidity
28510;BME280;15723;55.684;37.928;2023-04-25T00:01:34;99915.59;;;13.19;49.27
28510;BME280;15723;55.684;37.928;2023-04-25T00:04:02;99918.25;;;13.31;48.40
28510;BME280;15723;55.684;37.928;2023-04-25T00:06:33;99922.28;;;13.38;48.58
28510;BME280;15723;55.684;37.928;2023-04-25T00:09:03;99922.59;;;13.34;49.85
28510;BME280;15723;55.684;37.928;2023-04-25T00:11:29;99908.41;;;13.41;49.05
28510;BME280;15723;55.684;37.928;2023-04-25T00:13:56;99927.38;;;13.43;49.10
28510;BME280;15723;55.684;37.928;2023-04-25T00:16:23;99920.34;;;13.28;49.12
28510;BME280;15723;55.684;37.928;2023-04-25T00:18:52;99921.59;;;13.48;48.71
28510;BME280;15723;55.684;37.928;2023-04-25T00:21:20;99916.00;;;13.49;48.98
28510;BME280;15723;55.684;37.928;2023-04-25T00:23:46;99914.00;;;13.40;49.16
28510;BME280;15723;55.684;37.928;2023-04-25T00:26:13;99911.06;;;13.54;48.83
28510;BME280;15723;55.684;37.928;2023-04-25T00:28:39;99919.56;;;13.73;50.08
28510;BME280;15723;55.684;37.928;2023-04-25T00:31:06;99920.50;;;13.85;47.82
28510;BME280;15723;55.684;37.928;2023-04-25T00:33:33;99916.16;;;13.94;46.69
28510;BME280;15723;55.684;37.928;2023-04-25T00:35:59;99919.25;;;13.89;46.77
28510;BME280;15723;55.684;37.928;2023-04-25T00:38:25;99911.09;;;14.00;46.59
28510;BME280;15723;55.684;37.928;2023-04-25T00:40:52;99908.63;;;14.08;46.45
28510;BME280;15723;55.684;37.928;2023-04-25T00:43:19;99903.91;;;13.99;47.39
28510;BME280;15723;55.684;37.928;2023-04-25T00:45:47;99903.78;;;14.12;47.36
28510;BME280;15723;55.684;37.928;2023-04-25T00:48:17;99889.53;;;14.08;47.34
28510;BME280;15723;55.684;37.928;2023-04-25T00:50:53;99894.69;;;13.89;47.06
28510;BME280;15723;55.684;37.928;2023-04-25T00:53:21;99890.38;;;13.98;46.66
28510;BME280;15723;55.684;37.928;2023-04-25T00:55:48;99884.06;;;14.08;46.38
28510;BME280;15723;55.684;37.928;2023-04-25T00:58:20;99883.44;;;14.05;46.37
28510;BME280;15723;55.684;37.928;2023-04-25T01:00:49;99894.34;;;14.05;46.37
28510;BME280;15723;55.684;37.928;2023-04-25T01:03:16;99881.09;;;14.12;46.21
28510;BME280;15723;55.684;37.928;2023-04-25T01:05:46;99883.72;;;14.24;45.73
28510;BME280;15723;55.684;37.928;2023-04-25T01:08:13;99875.78;;;14.21;45.97
28510;BME280;15723;55.684;37.928;2023-04-25T01:10:40;99878.03;;;14.16;46.32
28510;BME280;15723;55.684;37.928;2023-04-25T01:13:06;99868.84;;;14.28;45.72
28510;BME280;15723;55.684;37.928;2023-04-25T01:15:33;99859.28;;;14.23;45.87
28510;BME280;15723;55.684;37.928;2023-04-25T01:17:59;99858.16;;;14.14;46.07
28510;BME280;15723;55.684;37.928;2023-04-25T01:20:28;99858.66;;;14.19;45.95
28510;BME280;15723;55.684;37.928;2023-04-25T01:22:56;99852.91;;;13.77;47.13
28510;BME280;15723;55.684;37.928;2023-04-25T01:25:22;99848.19;;;13.91;46.97
28510;BME280;15723;55.684;37.928;2023-04-25T01:27:49;99845.34;;;13.92;46.92
28510;BME280;15723;55.684;37.928;2023-04-25T01:30:16;99849.19;;;13.90;46.93
28510;BME280;15723;55.684;37.928;2023-04-25T01:32:43;99855.19;;;13.71;47.34
28510;BME280;15723;55.684;37.928;2023-04-25T01:35:11;99852.59;;;13.69;47.59
28510;BME280;15723;55.684;37.928;2023-04-25T01:37:39;99856.59;;;13.76;47.28
28510;BME280;15723;55.684;37.928;2023-04-25T01:40:06;99857.59;;;13.75;47.43
28510;BME280;15723;55.684;37.928;2023-04-25T01:42:34;99864.25;;;13.71;47.68
28510;BME280;15723;55.684;37.928;2023-04-25T01:45:02;99866.97;;;13.60;48.85
28510;BME280;15723;55.684;37.928;2023-04-25T01:47:30;99857.41;;;13.55;48.84
28510;BME280;15723;55.684;37.928;2023-04-25T01:49:56;99863.88;;;13.65;48.20
28510;BME280;15723;55.684;37.928;2023-04-25T01:52:22;99858.91;;;13.59;48.04
28510;BME280;15723;55.684;37.928;2023-04-25T01:54:50;99859.47;;;13.40;48.48
28510;BME280;15723;55.684;37.928;2023-04-25T01:57:17;99860.72;;;13.47;48.23
28510;BME280;15723;55.684;37.928;2023-04-25T01:59:44;99856.44;;;13.32;48.91
28510;BME280;15723;55.684;37.928;2023-04-25T02:02:38;99859.25;;;13.54;48.27
28510;BME280;15723;55.684;37.928;2023-04-25T02:05:08;99866.72;;;13.63;48.20
28510;BME280;15723;55.684;37.928;2023-04-25T02:07:38;99871.56;;;13.36;49.74
28510;BME280;15723;55.684;37.928;2023-04-25T02:10:05;99877.34;;;13.07;52.21
28510;BME280;15723;55.684;37.928;2023-04-25T02:12:35;99882.56;;;13.10;51.77
28510;BME280;15723;55.684;37.928;2023-04-25T02:15:24;99878.56;;;13.03;53.21
28510;BME280;15723;55.684;37.928;2023-04-25T02:18:15;99886.66;;;12.92;55.05
28510;BME280;15723;55.684;37.928;2023-04-25T02:20:46;99874.28;;;13.12;52.57
28510;BME280;15723;55.684;37.928;2023-04-25T02:23:13;99875.91;;;13.14;52.92
28510;BME280;15723;55.684;37.928;2023-04-25T02:25:41;99880.94;;;13.08;53.01
28510;BME280;15723;55.684;37.928;2023-04-25T02:28:07;99882.47;;;13.12;53.45
28510;BME280;15723;55.684;37.928;2023-04-25T02:30:35;99890.88;;;13.33;53.10
28510;BME280;15723;55.684;37.928;2023-04-25T02:33:04;99890.09;;;13.43;52.97
28510;BME280;15723;55.684;37.928;2023-04-25T02:35:31;99896.41;;;13.20;52.23
28510;BME280;15723;55.684;37.928;2023-04-25T02:37:57;99883.06;;;13.28;52.94
28510;BME280;15723;55.684;37.928;2023-04-25T02:40:23;99885.06;;;13.37;52.41
28510;BME280;15723;55.684;37.928;2023-04-25T02:42:49;99887.03;;;13.59;52.12
28510;BME280;15723;55.684;37.928;2023-04-25T02:45:18;99881.91;;;13.79;51.15
28510;BME280;15723;55.684;37.928;2023-04-25T02:47:44;99879.25;;;14.34;50.31
28510;BME280;15723;55.684;37.928;2023-04-25T02:50:11;99888.50;;;14.56;49.65
28510;BME280;15723;55.684;37.928;2023-04-25T02:52:39;99887.47;;;14.46;50.84
28510;BME280;15723;55.684;37.928;2023-04-25T02:55:13;99886.28;;;14.50;49.98
28510;BME280;15723;55.684;37.928;2023-04-25T02:57:40;99885.88;;;14.43;50.00
28510;BME280;15723;55.684;37.928;2023-04-25T03:00:10;99888.50;;;14.67;49.55
28510;BME280;15723;55.684;37.928;2023-04-25T03:02:38;99886.63;;;14.67;50.31
28510;BME280;15723;55.684;37.928;2023-04-25T03:05:04;99899.28;;;14.46;50.63
28510;BME280;15723;55.684;37.928;2023-04-25T03:07:32;99890.25;;;14.57;50.48
28510;BME280;15723;55.684;37.928;2023-04-25T03:09:58;99891.22;;;14.89;49.50
28510;BME280;15723;55.684;37.928;2023-04-25T03:12:25;99894.88;;;15.86;46.86
28510;BME280;15723;55.684;37.928;2023-04-25T03:14:51;99892.75;;;16.92;45.02
28510;BME280;15723;55.684;37.928;2023-04-25T03:17:17;99898.59;;;17.28;43.85
28510;BME280;15723;55.684;37.928;2023-04-25T03:19:44;99894.28;;;17.44;42.84
28510;BME280;15723;55.684;37.928;2023-04-25T03:22:10;99896.81;;;16.67;44.46
28510;BME280;15723;55.684;37.928;2023-04-25T03:24:36;99894.13;;;17.17;43.22
28510;BME280;15723;55.684;37.928;2023-04-25T03:27:03;99898.75;;;17.45;43.47
28510;BME280;15723;55.684;37.928;2023-04-25T03:29:29;99895.47;;;18.09;42.17
28510;BME280;15723;55.684;37.928;2023-04-25T03:31:57;99893.19;;;18.61;40.62
28510;BME280;15723;55.684;37.928;2023-04-25T03:34:24;99890.09;;;19.56;39.09
28510;BME280;15723;55.684;37.928;2023-04-25T03:36:50;99891.66;;;19.59;38.70
28510;BME280;15723;55.684;37.928;2023-04-25T03:39:16;99887.31;;;20.53;36.65
28510;BME280;15723;55.684;37.928;2023-04-25T03:41:47;99885.38;;;20.46;37.42
28510;BME280;15723;55.684;37.928;2023-04-25T03:44:14;99887.22;;;21.05;36.52
28510;BME280;15723;55.684;37.928;2023-04-25T03:46:41;99884.59;;;21.38;35.01
28510;BME280;15723;55.684;37.928;2023-04-25T03:49:07;99881.59;;;22.38;33.72
28510;BME280;15723;55.684;37.928;2023-04-25T03:51:54;99888.25;;;21.04;37.12
28510;BME280;15723;55.684;37.928;2023-04-25T03:54:21;99884.53;;;21.21;35.45
28510;BME280;15723;55.684;37.928;2023-04-25T03:56:58;99876.81;;;21.33;35.59
28510;BME280;15723;55.684;37.928;2023-04-25T03:59:27;99878.66;;;21.99;34.55
28510;BME280;15723;55.684;37.928;2023-04-25T04:01:54;99876.25;;;22.37;34.00
28510;BME280;15723;55.684;37.928;2023-04-25T04:04:20;99876.81;;;22.88;33.17
28510;BME280;15723;55.684;37.928;2023-04-25T04:06:47;99878.97;;;22.53;33.79
28510;BME280;15723;55.684;37.928;2023-04-25T04:09:18;99871.91;;;23.06;32.86
28510;BME280;15723;55.684;37.928;2023-04-25T04:11:47;99874.78;;;23.52;32.35
28510;BME280;15723;55.684;37.928;2023-04-25T04:14:13;99876.22;;;23.39;31.76
28510;BME280;15723;55.684;37.928;2023-04-25T04:16:43;99866.50;;;24.20;31.64
28510;BME280;15723;55.684;37.928;2023-04-25T04:19:11;99865.41;;;24.88;30.67
28510;BME280;15723;55.684;37.928;2023-04-25T04:21:40;99869.34;;;23.89;31.42
28510;BME280;15723;55.684;37.928;2023-04-25T04:24:06;99860.53;;;25.20;30.01
28510;BME280;15723;55.684;37.928;2023-04-25T04:26:46;99864.81;;;24.34;30.76
28510;BME280;15723;55.684;37.928;2023-04-25T04:29:29;99862.91;;;24.12;31.76
28510;BME280;15723;55.684;37.928;2023-04-25T04:32:13;99863.19;;;25.43;29.91
28510;BME280;15723;55.684;37.928;2023-04-25T04:34:40;99867.72;;;24.85;30.24
28510;BME280;15723;55.684;37.928;2023-04-25T04:37:07;99861.75;;;25.83;29.12
28510;BME280;15723;55.684;37.928;2023-04-25T04:39:35;99860.47;;;25.28;29.45
28510;BME280;15723;55.684;37.928;2023-04-25T04:42:22;99856.81;;;26.28;27.75
28510;BME280;15723;55.684;37.928;2023-04-25T04:44:55;99859.44;;;26.08;28.22
28510;BME280;15723;55.684;37.928;2023-04-25T04:47:46;99859.09;;;26.73;27.19
28510;BME280;15723;55.684;37.928;2023-04-25T04:50:17;99854.94;;;27.25;26.61
28510;BME280;15723;55.684;37.928;2023-04-25T04:53:07;99860.47;;;27.80;26.12
28510;BME280;15723;55.684;37.928;2023-04-25T04:55:34;99859.28;;;28.35;25.79
28510;BME280;15723;55.684;37.928;2023-04-25T04:58:08;99855.53;;;29.07;24.39
28510;BME280;15723;55.684;37.928;2023-04-25T05:00:53;99845.72;;;29.43;24.61
28510;BME280;15723;55.684;37.928;2023-04-25T05:03:37;99853.47;;;29.34;24.12
28510;BME280;15723;55.684;37.928;2023-04-25T05:06:10;99845.66;;;29.05;24.27
28510;BME280;15723;55.684;37.928;2023-04-25T05:08:55;99838.31;;;31.18;22.55
28510;BME280;15723;55.684;37.928;2023-04-25T05:11:44;99836.16;;;31.50;21.43
28510;BME280;15723;55.684;37.928;2023-04-25T05:14:26;99824.06;;;31.97;21.13
28510;BME280;15723;55.684;37.928;2023-04-25T05:17:07;99832.41;;;31.26;22.15
28510;BME280;15723;55.684;37.928;2023-04-25T05:20:00;99837.72;;;32.47;20.58
28510;BME280;15723;55.684;37.928;2023-04-25T05:22:45;99824.59;;;31.58;20.80
28510;BME280;15723;55.684;37.928;2023-04-25T05:25:22;99832.09;;;32.36;20.86
28510;BME280;15723;55.684;37.928;2023-04-25T05:28:14;99831.06;;;31.77;21.03
28510;BME280;15723;55.684;37.928;2023-04-25T05:30:48;99834.88;;;30.29;22.74
28510;BME280;15723;55.684;37.928;2023-04-25T05:33:35;99841.09;;;31.36;21.55
28510;BME280;15723;55.684;37.928;2023-04-25T05:36:02;99837.19;;;30.32;23.03
28510;BME280;15723;55.684;37.928;2023-04-25T05:38:29;99835.44;;;30.81;22.13
28510;BME280;15723;55.684;37.928;2023-04-25T05:41:21;99841.94;;;30.57;22.61
28510;BME280;15723;55.684;37.928;2023-04-25T05:44:08;99824.97;;;31.13;22.06
28510;BME280;15723;55.684;37.928;2023-04-25T05:46:44;99824.97;;;30.95;21.88
28510;BME280;15723;55.684;37.928;2023-04-25T05:49:37;99813.97;;;33.94;19.41
28510;BME280;15723;55.684;37.928;2023-04-25T05:52:18;99811.47;;;33.52;19.85
28510;BME280;15723;55.684;37.928;2023-04-25T05:54:55;99808.75;;;33.17;19.64
28510;BME280;15723;55.684;37.928;2023-04-25T05:57:23;99809.69;;;32.17;20.41
28510;BME280;15723;55.684;37.928;2023-04-25T05:59:50;99813.78;;;32.45;20.38
28510;BME280;15723;55.684;37.928;2023-04-25T06:02:18;99814.72;;;33.20;19.64
28510;BME280;15723;55.684;37.928;2023-04-25T06:04:45;99806.09;;;34.41;18.44
28510;BME280;15723;55.684;37.928;2023-04-25T06:10:06;99788.47;;;33.83;18.78
28510;BME280;15723;55.684;37.928;2023-04-25T06:12:33;99781.22;;;33.76;19.24
28510;BME280;15723;55.684;37.928;2023-04-25T06:15:00;99779.91;;;35.39;17.61
28510;BME280;15723;55.684;37.928;2023-04-25T06:17:29;99778.47;;;34.09;18.44
28510;BME280;15723;55.684;37.928;2023-04-25T06:19:57;99776.50;;;33.48;19.30
28510;BME280;15723;55.684;37.928;2023-04-25T06:22:24;99778.19;;;34.95;18.21
28510;BME280;15723;55.684;37.928;2023-04-25T06:24:50;99774.97;;;35.52;17.47
28510;BME280;15723;55.684;37.928;2023-04-25T06:27:16;99770.66;;;35.00;17.73
28510;BME280;15723;55.684;37.928;2023-04-25T06:29:43;99772.81;;;34.76;17.91
28510;BME280;15723;55.684;37.928;2023-04-25T06:32:09;99768.25;;;36.12;16.63
28510;BME280;15723;55.684;37.928;2023-04-25T06:34:35;99773.66;;;36.50;16.10
28510;BME280;15723;55.684;37.928;2023-04-25T06:37:02;99772.69;;;34.66;17.86
28510;BME280;15723;55.684;37.928;2023-04-25T06:39:28;99766.56;;;34.36;17.62
28510;BME280;15723;55.684;37.928;2023-04-25T06:41:55;99769.16;;;35.63;17.15
28510;BME280;15723;55.684;37.928;2023-04-25T06:44:45;99779.13;;;35.98;16.62
28510;BME280;15723;55.684;37.928;2023-04-25T06:47:13;99772.53;;;34.39;17.43
28510;BME280;15723;55.684;37.928;2023-04-25T06:49:41;99781.50;;;34.36;17.39
28510;BME280;15723;55.684;37.928;2023-04-25T06:52:09;99775.22;;;34.85;17.64
28510;BME280;15723;55.684;37.928;2023-04-25T06:54:37;99778.09;;;34.90;17.84
28510;BME280;15723;55.684;37.928;2023-04-25T06:57:33;99773.88;;;34.03;18.03
28510;BME280;15723;55.684;37.928;2023-04-25T07:00:15;99773.59;;;35.32;16.75
28510;BME280;15723;55.684;37.928;2023-04-25T07:02:42;99780.19;;;36.19;16.49
28510;BME280;15723;55.684;37.928;2023-04-25T07:05:09;99779.81;;;34.91;16.83
28510;BME280;15723;55.684;37.928;2023-04-25T07:07:36;99782.56;;;34.18;17.57
28510;BME280;15723;55.684;37.928;2023-04-25T07:10:02;99788.72;;;32.31;18.76
28510;BME280;15723;55.684;37.928;2023-04-25T07:12:29;99774.91;;;33.40;17.72
28510;BME280;15723;55.684;37.928;2023-04-25T07:14:55;99781.09;;;34.83;16.77
28510;BME280;15723;55.684;37.928;2023-04-25T07:17:21;99782.19;;;34.60;16.58
28510;BME280;15723;55.684;37.928;2023-04-25T07:21:10;99788.69;;;33.53;16.72
28510;BME280;15723;55.684;37.928;2023-04-25T07:23:37;99790.00;;;33.34;17.41
28510;BME280;15723;55.684;37.928;2023-04-25T07:26:11;99788.28;;;33.62;17.85
28510;BME280;15723;55.684;37.928;2023-04-25T07:28:49;99779.59;;;33.63;17.41
28510;BME280;15723;55.684;37.928;2023-04-25T07:31:17;99783.69;;;34.51;16.54
28510;BME280;15723;55.684;37.928;2023-04-25T07:33:46;99776.03;;;34.46;17.37
28510;BME280;15723;55.684;37.928;2023-04-25T07:36:13;99789.75;;;34.09;17.45
28510;BME280;15723;55.684;37.928;2023-04-25T07:38:41;99777.69;;;33.52;17.94
28510;BME280;15723;55.684;37.928;2023-04-25T07:41:07;99793.34;;;32.14;19.39
28510;BME280;15723;55.684;37.928;2023-04-25T07:43:33;99781.81;;;31.92;20.00
28510;BME280;15723;55.684;37.928;2023-04-25T07:46:00;99778.81;;;32.06;20.41
28510;BME280;15723;55.684;37.928;2023-04-25T07:48:29;99788.69;;;30.82;21.57
28510;BME280;15723;55.684;37.928;2023-04-25T07:50:56;99791.44;;;31.85;20.04
28510;BME280;15723;55.684;37.928;2023-04-25T07:53:22;99792.75;;;31.22;19.93
28510;BME280;15723;55.684;37.928;2023-04-25T07:55:57;99793.19;;;30.83;20.80
28510;BME280;15723;55.684;37.928;2023-04-25T07:58:23;99789.47;;;31.74;20.14
28510;BME280;15723;55.684;37.928;2023-04-25T08:00:54;99789.16;;;30.97;20.66
28510;BME280;15723;55.684;37.928;2023-04-25T08:03:41;99797.63;;;30.47;21.06
28510;BME280;15723;55.684;37.928;2023-04-25T08:06:14;99779.81;;;30.85;20.85
28510;BME280;15723;55.684;37.928;2023-04-25T08:08:56;99777.25;;;31.01;20.10
28510;BME280;15723;55.684;37.928;2023-04-25T08:11:29;99793.97;;;29.97;21.48
28510;BME280;15723;55.684;37.928;2023-04-25T08:13:56;99792.84;;;29.79;21.66
28510;BME280;15723;55.684;37.928;2023-04-25T08:16:23;99781.53;;;29.93;21.63
28510;BME280;15723;55.684;37.928;2023-04-25T08:18:50;99773.66;;;29.07;22.49
28510;BME280;15723;55.684;37.928;2023-04-25T08:21:17;99784.13;;;27.94;24.29
28510;BME280;15723;55.684;37.928;2023-04-25T08:23:44;99773.53;;;26.89;25.08
28510;BME280;15723;55.684;37.928;2023-04-25T08:26:21;99786.53;;;25.48;25.56
28510;BME280;15723;55.684;37.928;2023-04-25T08:28:49;99771.00;;;26.59;25.33
28510;BME280;15723;55.684;37.928;2023-04-25T08:31:16;99743.09;;;25.26;26.85
28510;BME280;15723;55.684;37.928;2023-04-25T08:33:52;99770.19;;;25.03;27.82
28510;BME280;15723;55.684;37.928;2023-04-25T08:36:38;99767.97;;;25.13;26.77
28510;BME280;15723;55.684;37.928;2023-04-25T08:39:08;99783.91;;;23.47;28.62
28510;BME280;15723;55.684;37.928;2023-04-25T08:41:44;99753.19;;;24.47;27.48
28510;BME280;15723;55.684;37.928;2023-04-25T08:44:11;99749.84;;;25.17;27.25
28510;BME280;15723;55.684;37.928;2023-04-25T08:46:39;99765.59;;;24.95;26.69
28510;BME280;15723;55.684;37.928;2023-04-25T08:49:31;99752.72;;;24.58;26.89
28510;BME280;15723;55.684;37.928;2023-04-25T08:52:00;99752.00;;;23.97;28.60
28510;BME280;15723;55.684;37.928;2023-04-25T08:54:28;99751.66;;;23.77;29.20
28510;BME280;15723;55.684;37.928;2023-04-25T08:56:55;99750.56;;;24.01;27.48
28510;BME280;15723;55.684;37.928;2023-04-25T08:59:24;99742.31;;;24.30;27.81
28510;BME280;15723;55.684;37.928;2023-04-25T09:01:50;99751.03;;;23.21;29.10
28510;BME280;15723;55.684;37.928;2023-04-25T09:04:20;99748.34;;;23.96;28.57
28510;BME280;15723;55.684;37.928;2023-04-25T09:06:47;99743.63;;;24.64;28.03
28510;BME280;15723;55.684;37.928;2023-04-25T09:09:14;99742.69;;;23.52;28.14
28510;BME280;15723;55.684;37.928;2023-04-25T09:11:40;99742.47;;;23.31;28.86
28510;BME280;15723;55.684;37.928;2023-04-25T09:14:22;99717.75;;;23.90;28.91
28510;BME280;15723;55.684;37.928;2023-04-25T09:17:03;99716.09;;;23.20;29.80
28510;BME280;15723;55.684;37.928;2023-04-25T09:20:14;99721.88;;;23.11;29.37
28510;BME280;15723;55.684;37.928;2023-04-25T09:22:41;99718.78;;;23.28;30.05
28510;BME280;15723;55.684;37.928;2023-04-25T09:25:12;99726.31;;;23.65;28.41
28510;BME280;15723;55.684;37.928;2023-04-25T09:27:54;99715.84;;;23.53;28.52
28510;BME280;15723;55.684;37.928;2023-04-25T09:30:31;99725.78;;;22.93;28.73
28510;BME280;15723;55.684;37.928;2023-04-25T09:33:18;99712.81;;;22.94;29.56
28510;BME280;15723;55.684;37.928;2023-04-25T09:35:48;99717.63;;;22.61;29.61
28510;BME280;15723;55.684;37.928;2023-04-25T09:38:30;99707.78;;;23.20;29.19
28510;BME280;15723;55.684;37.928;2023-04-25T09:41:01;99708.38;;;22.85;29.21
28510;BME280;15723;55.684;37.928;2023-04-25T09:43:49;99699.72;;;23.56;28.37
28510;BME280;15723;55.684;37.928;2023-04-25T09:46:17;99712.28;;;22.20;29.67
28510;BME280;15723;55.684;37.928;2023-04-25T09:48:51;99702.59;;;22.94;30.05
28510;BME280;15723;55.684;37.928;2023-04-25T09:51:30;99715.91;;;22.68;28.78
28510;BME280;15723;55.684;37.928;2023-04-25T09:53:59;99711.38;;;22.28;28.54
28510;BME280;15723;55.684;37.928;2023-04-25T09:56:36;99704.34;;;22.56;28.08
28510;BME280;15723;55.684;37.928;2023-04-25T09:59:07;99701.00;;;22.38;28.61
28510;BME280;15723;55.684;37.928;2023-04-25T10:01:40;99694.25;;;22.71;29.00
28510;BME280;15723;55.684;37.928;2023-04-25T10:04:27;99682.84;;;22.66;28.52
28510;BME280;15723;55.684;37.928;2023-04-25T10:07:06;99679.38;;;22.41;28.44
28510;BME280;15723;55.684;37.928;2023-04-25T10:09:39;99683.13;;;22.80;27.83
28510;BME280;15723;55.684;37.928;2023-04-25T10:12:07;99702.22;;;22.66;28.69
28510;BME280;15723;55.684;37.928;2023-04-25T10:14:34;99701.22;;;22.59;29.74
28510;BME280;15723;55.684;37.928;2023-04-25T10:17:03;99704.53;;;22.55;28.01
28510;BME280;15723;55.684;37.928;2023-04-25T10:19:31;99692.66;;;21.82;29.37
28510;BME280;15723;55.684;37.928;2023-04-25T10:22:07;99688.31;;;21.88;30.07
28510;BME280;15723;55.684;37.928;2023-04-25T10:24:38;99684.84;;;22.50;29.61
28510;BME280;15723;55.684;37.928;2023-04-25T10:27:20;99676.59;;;22.41;29.46
28510;BME280;15723;55.684;37.928;2023-04-25T10:30:04;99663.16;;;22.69;29.92
28510;BME280;15723;55.684;37.928;2023-04-25T10:32:32;99684.13;;;22.17;30.00
28510;BME280;15723;55.684;37.928;2023-04-25T10:37:57;99666.03;;;21.90;30.04
28510;BME280;15723;55.684;37.928;2023-04-25T10:40:24;99669.50;;;21.83;29.92
28510;BME280;15723;55.684;37.928;2023-04-25T10:42:54;99667.50;;;22.25;29.28
28510;BME280;15723;55.684;37.928;2023-04-25T10:45:21;99659.22;;;22.56;29.06
28510;BME280;15723;55.684;37.928;2023-04-25T10:47:48;99652.59;;;22.65;28.79
28510;BME280;15723;55.684;37.928;2023-04-25T10:50:15;99645.44;;;23.47;28.01
28510;BME280;15723;55.684;37.928;2023-04-25T10:52:44;99652.56;;;22.73;28.61
28510;BME280;15723;55.684;37.928;2023-04-25T10:55:11;99643.94;;;22.99;29.48
28510;BME280;15723;55.684;37.928;2023-04-25T10:57:40;99656.50;;;22.78;27.08
28510;BME280;15723;55.684;37.928;2023-04-25T11:00:16;99643.69;;;22.55;28.84
28510;BME280;15723;55.684;37.928;2023-04-25T11:02:45;99634.28;;;23.18;28.09
28510;BME280;15723;55.684;37.928;2023-04-25T11:07:57;99639.69;;;22.26;30.44
28510;BME280;15723;55.684;37.928;2023-04-25T11:10:31;99636.28;;;22.78;29.95
28510;BME280;15723;55.684;37.928;2023-04-25T11:12:59;99624.06;;;22.64;30.15
28510;BME280;15723;55.684;37.928;2023-04-25T11:15:33;99626.97;;;22.48;29.41
28510;BME280;15723;55.684;37.928;2023-04-25T11:17:59;99624.16;;;22.79;29.20
28510;BME280;15723;55.684;37.928;2023-04-25T11:20:26;99621.59;;;22.77;29.13
28510;BME280;15723;55.684;37.928;2023-04-25T11:22:57;99621.13;;;22.04;30.70
28510;BME280;15723;55.684;37.928;2023-04-25T11:25:25;99612.41;;;22.23;29.91
28510;BME280;15723;55.684;37.928;2023-04-25T11:30:19;99604.84;;;22.48;29.10
28510;BME280;15723;55.684;37.928;2023-04-25T11:32:46;99588.97;;;21.64;30.59
28510;BME280;15723;55.684;37.928;2023-04-25T11:35:13;99590.00;;;21.54;31.00
28510;BME280;15723;55.684;37.928;2023-04-25T11:37:41;99596.31;;;22.27;30.14
28510;BME280;15723;55.684;37.928;2023-04-25T11:40:08;99585.22;;;21.88;30.47
28510;BME280;15723;55.684;37.928;2023-04-25T11:42:39;99575.41;;;22.78;29.98
28510;BME280;15723;55.684;37.928;2023-04-25T11:45:06;99586.66;;;22.76;28.17
28510;BME280;15723;55.684;37.928;2023-04-25T11:47:33;99584.50;;;22.64;30.05
28510;BME280;15723;55.684;37.928;2023-04-25T11:50:03;99574.44;;;22.94;30.44
28510;BME280;15723;55.684;37.928;2023-04-25T11:52:43;99563.41;;;22.63;29.61
28510;BME280;15723;55.684;37.928;2023-04-25T11:55:13;99563.94;;;22.89;29.21
28510;BME280;15723;55.684;37.928;2023-04-25T11:57:41;99565.66;;;22.67;28.92
28510;BME280;15723;55.684;37.928;2023-04-25T12:00:16;99557.84;;;22.94;28.95
28510;BME280;15723;55.684;37.928;2023-04-25T12:02:44;99556.59;;;22.96;29.84
28510;BME280;15723;55.684;37.928;2023-04-25T12:05:13;99543.97;;;23.17;29.09
28510;BME280;15723;55.684;37.928;2023-04-25T12:07:39;99550.47;;;23.24;29.32
28510;BME280;15723;55.684;37.928;2023-04-25T12:10:08;99547.28;;;23.12;29.80
28510;BME280;15723;55.684;37.928;2023-04-25T12:12:36;99557.19;;;22.61;30.15
28510;BME280;15723;55.684;37.928;2023-04-25T12:15:16;99550.31;;;22.57;29.08
28510;BME280;15723;55.684;37.928;2023-04-25T12:17:53;99545.56;;;22.65;29.22
28510;BME280;15723;55.684;37.928;2023-04-25T12:20:26;99548.19;;;22.44;29.85
28510;BME280;15723;55.684;37.928;2023-04-25T12:22:52;99528.41;;;22.32;30.94
28510;BME280;15723;55.684;37.928;2023-04-25T12:25:37;99532.50;;;22.36;29.26
28510;BME280;15723;55.684;37.928;2023-04-25T12:33:24;99524.41;;;22.04;29.75
28510;BME280;15723;55.684;37.928;2023-04-25T12:35:52;99522.53;;;21.88;29.17
28510;BME280;15723;55.684;37.928;2023-04-25T12:38:30;99511.59;;;22.11;29.12
28510;BME280;15723;55.684;37.928;2023-04-25T12:40:59;99501.09;;;21.67;29.97
28510;BME280;15723;55.684;37.928;2023-04-25T12:43:26;99501.44;;;21.64;30.69
28510;BME280;15723;55.684;37.928;2023-04-25T12:45:55;99493.31;;;22.02;29.41
28510;BME280;15723;55.684;37.928;2023-04-25T12:48:22;99493.91;;;22.20;29.74
28510;BME280;15723;55.684;37.928;2023-04-25T12:50:50;99495.53;;;22.37;29.98
28510;BME280;15723;55.684;37.928;2023-04-25T12:53:19;99487.97;;;21.92;29.23
28510;BME280;15723;55.684;37.928;2023-04-25T12:55:45;99487.28;;;21.67;29.58
28510;BME280;15723;55.684;37.928;2023-04-25T12:58:17;99490.31;;;21.41;30.24
28510;BME280;15723;55.684;37.928;2023-04-25T13:00:44;99480.13;;;21.81;30.53
28510;BME280;15723;55.684;37.928;2023-04-25T13:03:18;99472.66;;;21.59;30.49
28510;BME280;15723;55.684;37.928;2023-04-25T13:05:44;99478.03;;;21.83;31.56
28510;BME280;15723;55.684;37.928;2023-04-25T13:08:11;99471.44;;;21.53;30.39
28510;BME280;15723;55.684;37.928;2023-04-25T13:10:37;99471.81;;;21.50;30.42
28510;BME280;15723;55.684;37.928;2023-04-25T13:13:05;99465.56;;;21.01;30.65
28510;BME280;15723;55.684;37.928;2023-04-25T13:15:31;99458.84;;;21.03;31.14
28510;BME280;15723;55.684;37.928;2023-04-25T13:17:58;99445.53;;;21.62;30.65
28510;BME280;15723;55.684;37.928;2023-04-25T13:20:24;99444.78;;;21.99;30.22
28510;BME280;15723;55.684;37.928;2023-04-25T13:22:50;99433.94;;;21.98;30.42
28510;BME280;15723;55.684;37.928;2023-04-25T13:25:17;99441.06;;;22.15;30.54
28510;BME280;15723;55.684;37.928;2023-04-25T13:27:47;99431.00;;;22.22;30.94